| time (UTC) | temp F | wind direction | speed knots | gust knots | rain 1hr in | rain 24hr in | rain mn in | humidity % | barometer mb |
| 20260510033833 | 73 | 357 | 0.0 | 5.2 | 0.00 | 0.00 | 0.00 | 31 | 1017.0 |
| 20260510030832 | 73 | 118 | 1.7 | 5.2 | 0.00 | 0.00 | 0.00 | 32 | 1017.0 |
| 20260510023831 | 74 | 200 | 2.6 | 4.3 | 0.00 | 0.00 | 0.00 | 26 | 1017.0 |
| 20260510020830 | 75 | 335 | 0.9 | 0.9 | 0.00 | 0.00 | 0.00 | 22 | 1015.0 |
| 20260510013829 | 74 | 229 | 0.9 | 0.9 | 0.00 | 0.00 | 0.00 | 22 | 1016.0 |
| 20260510010828 | 73 | 146 | 0.0 | 0.9 | 0.00 | 0.00 | 0.00 | 22 | 1019.0 |
| 20260510003827 | 73 | 156 | 2.6 | 3.5 | 0.00 | 0.00 | 0.00 | 21 | 1019.0 |
| 20260510000826 | 72 | 112 | 0.9 | 2.6 | 0.00 | 0.00 | 0.00 | 24 | 1015.0 |
| 20260509233825 | 70 | 284 | 0.0 | 0.9 | 0.00 | 0.00 | 0.00 | 26 | 1017.0 |
| 20260509230824 | 67 | 79 | 0.0 | 0.0 | 0.00 | 0.00 | 0.00 | 30 | 1016.0 |
| 20260509223823 | 66 | 114 | 0.0 | 0.0 | 0.00 | 0.00 | 0.00 | 31 | 1017.0 |
| 20260509220822 | 64 | 41 | 0.9 | 1.7 | 0.00 | 0.00 | 0.00 | 31 | 1017.0 |
| 20260509213821 | 63 | 55 | 0.0 | 0.0 | 0.00 | 0.00 | 0.00 | 33 | 1017.0 |
| 20260509210820 | 61 | 217 | 0.0 | 0.9 | 0.00 | 0.00 | 0.00 | 36 | 1015.0 |
| 20260509203819 | 58 | 215 | 0.0 | 0.9 | 0.00 | 0.00 | 0.00 | 39 | 1018.0 |
| 20260509200818 | 57 | 297 | 0.0 | 0.0 | 0.00 | 0.00 | 0.00 | 41 | 1017.0 |
| 20260509193817 | 56 | 288 | 0.0 | 0.0 | 0.00 | 0.00 | 0.00 | 41 | 1015.0 |
| 20260509190816 | 57 | 288 | 0.0 | 0.0 | 0.00 | 0.00 | 0.00 | 42 | 1015.0 |
| 20260509183815 | 57 | 288 | 0.0 | 0.0 | 0.00 | 0.00 | 0.00 | 39 | 1014.0 |
| 20260509180814 | 58 | 290 | 0.0 | 0.0 | 0.00 | 0.00 | 0.00 | 38 | 1015.0 |
| 20260509173813 | 59 | 287 | 0.0 | 0.0 | 0.00 | 0.00 | 0.00 | 37 | 1013.0 |
| 20260509170812 | 59 | 292 | 0.0 | 0.0 | 0.00 | 0.00 | 0.00 | 37 | 1014.0 |
| 20260509163811 | 59 | 290 | 0.0 | 0.0 | 0.00 | 0.00 | 0.00 | 37 | 1014.0 |
| 20260509160810 | 59 | 288 | 0.0 | 0.0 | 0.00 | 0.00 | 0.00 | 36 | 1014.0 |
| 20260509153809 | 60 | 287 | 0.0 | 0.0 | 0.00 | 0.00 | 0.00 | 35 | 1014.0 |
| 20260509150808 | 60 | 290 | 0.0 | 0.0 | 0.00 | 0.00 | 0.00 | 34 | 1012.0 |
| 20260509143807 | 61 | 290 | 0.0 | 0.0 | 0.00 | 0.00 | 0.00 | 33 | 1013.0 |
| 20260509140806 | 61 | 287 | 0.0 | 0.0 | 0.00 | 0.00 | 0.00 | 33 | 1013.0 |
| 20260509133805 | 60 | 287 | 0.0 | 0.0 | 0.00 | 0.00 | 0.00 | 35 | 1012.0 |
| 20260509130804 | 61 | 285 | 0.0 | 0.0 | 0.00 | 0.00 | 0.00 | 32 | 1014.0 |
| 20260509123803 | 62 | 287 | 0.0 | 0.0 | 0.00 | 0.00 | 0.00 | 31 | 1012.0 |
| 20260509120802 | 63 | 288 | 0.0 | 0.0 | 0.00 | 0.00 | 0.00 | 29 | 1011.0 |
| 20260509113801 | 64 | 287 | 0.0 | 0.0 | 0.00 | 0.00 | 0.00 | 27 | 1012.0 |
| 20260509110800 | 65 | 287 | 0.0 | 0.0 | 0.00 | 0.00 | 0.00 | 24 | 1012.0 |
| 20260509103759 | 66 | 292 | 0.0 | 0.0 | 0.00 | 0.00 | 0.00 | 24 | 1012.0 |
| 20260509100758 | 67 | 304 | 0.0 | 0.0 | 0.00 | 0.00 | 0.00 | 23 | 1010.0 |
| 20260509093757 | 67 | 30 | 0.9 | 2.6 | 0.00 | 0.00 | 0.00 | 22 | 1011.0 |
| 20260509090756 | 68 | 205 | 2.6 | 3.5 | 0.00 | 0.00 | 0.00 | 22 | 1010.0 |
| 20260509083755 | 69 | 211 | 0.0 | 3.5 | 0.00 | 0.00 | 0.00 | 21 | 1010.0 |
| 20260509080754 | 70 | 202 | 0.0 | 2.6 | 0.00 | 0.00 | 0.00 | 22 | 1008.0 |
| 20260509073753 | 71 | 103 | 0.9 | 3.5 | 0.00 | 0.00 | 0.00 | 22 | 1008.0 |
| 20260509070752 | 72 | 267 | 1.7 | 3.5 | 0.00 | 0.00 | 0.00 | 22 | 1007.0 |
| 20260509063751 | 73 | 97 | 1.7 | 2.6 | 0.00 | 0.00 | 0.00 | 22 | 1008.0 |
| 20260509060750 | 71 | 294 | 2.6 | 4.3 | 0.00 | 0.00 | 0.00 | 23 | 1007.0 |
| 20260509053749 | 72 | 149 | 0.0 | 3.5 | 0.00 | 0.00 | 0.00 | 24 | 1007.0 |
| 20260509050748 | 73 | 35 | 0.0 | 4.3 | 0.00 | 0.00 | 0.00 | 24 | 1007.0 |
| 20260509043747 | 74 | 105 | 0.9 | 3.5 | 0.00 | 0.00 | 0.00 | 23 | 1008.0 |
| 20260509040746 | 73 | 56 | 0.9 | 6.1 | 0.00 | 0.00 | 0.00 | 24 | 1008.0 |